sensor_id;sensor_type;location;lat;lon;timestamp;P1;durP1;ratioP1;P2;durP2;ratioP2
51764;SDS011;37835;53.256;6.456;2022-12-22T00:00:52;60.53;;;31.73;;
51764;SDS011;37835;53.256;6.456;2022-12-22T00:03:36;60.83;;;31.08;;
51764;SDS011;37835;53.256;6.456;2022-12-22T00:06:20;60.28;;;30.98;;
51764;SDS011;37835;53.256;6.456;2022-12-22T00:09:05;55.92;;;29.55;;
51764;SDS011;37835;53.256;6.456;2022-12-22T00:11:49;53.45;;;28.42;;
51764;SDS011;37835;53.256;6.456;2022-12-22T00:14:33;51.63;;;28.60;;
51764;SDS011;37835;53.256;6.456;2022-12-22T00:17:24;55.38;;;29.50;;
51764;SDS011;37835;53.256;6.456;2022-12-22T00:20:14;56.90;;;29.77;;
51764;SDS011;37835;53.256;6.456;2022-12-22T00:23:00;58.65;;;30.45;;
51764;SDS011;37835;53.256;6.456;2022-12-22T00:25:45;61.95;;;29.92;;
51764;SDS011;37835;53.256;6.456;2022-12-22T00:28:30;55.83;;;29.48;;
51764;SDS011;37835;53.256;6.456;2022-12-22T00:31:17;59.42;;;29.88;;
51764;SDS011;37835;53.256;6.456;2022-12-22T00:34:02;59.17;;;29.50;;
51764;SDS011;37835;53.256;6.456;2022-12-22T00:36:46;59.25;;;29.48;;
51764;SDS011;37835;53.256;6.456;2022-12-22T00:39:30;60.85;;;29.65;;
51764;SDS011;37835;53.256;6.456;2022-12-22T00:42:15;62.25;;;30.40;;
51764;SDS011;37835;53.256;6.456;2022-12-22T00:44:59;68.22;;;31.23;;
51764;SDS011;37835;53.256;6.456;2022-12-22T00:47:43;69.57;;;31.60;;
51764;SDS011;37835;53.256;6.456;2022-12-22T00:50:29;77.88;;;33.17;;
51764;SDS011;37835;53.256;6.456;2022-12-22T00:53:15;83.60;;;32.65;;
51764;SDS011;37835;53.256;6.456;2022-12-22T00:56:01;85.68;;;34.70;;
51764;SDS011;37835;53.256;6.456;2022-12-22T00:58:49;81.43;;;32.88;;
51764;SDS011;37835;53.256;6.456;2022-12-22T01:01:35;91.97;;;35.28;;
51764;SDS011;37835;53.256;6.456;2022-12-22T01:04:20;93.47;;;36.15;;
51764;SDS011;37835;53.256;6.456;2022-12-22T01:07:04;89.75;;;35.50;;
51764;SDS011;37835;53.256;6.456;2022-12-22T01:09:49;97.35;;;37.63;;
51764;SDS011;37835;53.256;6.456;2022-12-22T01:12:35;94.35;;;37.58;;
51764;SDS011;37835;53.256;6.456;2022-12-22T01:15:22;97.07;;;39.10;;
51764;SDS011;37835;53.256;6.456;2022-12-22T01:18:07;97.50;;;39.67;;
51764;SDS011;37835;53.256;6.456;2022-12-22T01:20:51;100.53;;;38.90;;
51764;SDS011;37835;53.256;6.456;2022-12-22T01:23:36;101.47;;;39.75;;
51764;SDS011;37835;53.256;6.456;2022-12-22T01:26:21;104.80;;;41.50;;
51764;SDS011;37835;53.256;6.456;2022-12-22T01:29:06;97.97;;;39.22;;
51764;SDS011;37835;53.256;6.456;2022-12-22T01:31:50;99.38;;;39.90;;
51764;SDS011;37835;53.256;6.456;2022-12-22T01:34:35;108.25;;;42.28;;
51764;SDS011;37835;53.256;6.456;2022-12-22T01:37:19;105.93;;;40.05;;
51764;SDS011;37835;53.256;6.456;2022-12-22T01:40:04;102.90;;;40.78;;
51764;SDS011;37835;53.256;6.456;2022-12-22T01:42:48;105.50;;;39.35;;
51764;SDS011;37835;53.256;6.456;2022-12-22T01:45:34;99.95;;;39.83;;
51764;SDS011;37835;53.256;6.456;2022-12-22T01:48:24;97.35;;;39.80;;
51764;SDS011;37835;53.256;6.456;2022-12-22T01:51:12;100.75;;;39.63;;
51764;SDS011;37835;53.256;6.456;2022-12-22T01:54:18;98.47;;;39.58;;
51764;SDS011;37835;53.256;6.456;2022-12-22T01:57:02;100.60;;;41.00;;
51764;SDS011;37835;53.256;6.456;2022-12-22T01:59:47;102.10;;;40.20;;
51764;SDS011;37835;53.256;6.456;2022-12-22T02:02:31;98.78;;;39.90;;
51764;SDS011;37835;53.256;6.456;2022-12-22T02:05:15;99.72;;;40.38;;
51764;SDS011;37835;53.256;6.456;2022-12-22T02:08:22;100.63;;;40.85;;
51764;SDS011;37835;53.256;6.456;2022-12-22T02:14:26;102.72;;;40.63;;
51764;SDS011;37835;53.256;6.456;2022-12-22T02:23:08;96.53;;;40.70;;
51764;SDS011;37835;53.256;6.456;2022-12-22T02:29:26;103.95;;;40.03;;
51764;SDS011;37835;53.256;6.456;2022-12-22T02:32:15;94.30;;;40.53;;
51764;SDS011;37835;53.256;6.456;2022-12-22T02:34:59;100.93;;;40.20;;
51764;SDS011;37835;53.256;6.456;2022-12-22T02:40:53;96.55;;;40.28;;
51764;SDS011;37835;53.256;6.456;2022-12-22T02:44:02;100.90;;;40.40;;
51764;SDS011;37835;53.256;6.456;2022-12-22T02:47:18;99.50;;;40.13;;
51764;SDS011;37835;53.256;6.456;2022-12-22T02:50:28;101.82;;;39.42;;
51764;SDS011;37835;53.256;6.456;2022-12-22T02:53:15;108.65;;;42.05;;
51764;SDS011;37835;53.256;6.456;2022-12-22T02:56:03;114.07;;;43.38;;
51764;SDS011;37835;53.256;6.456;2022-12-22T02:58:50;112.55;;;41.90;;
51764;SDS011;37835;53.256;6.456;2022-12-22T03:01:34;112.35;;;43.20;;
51764;SDS011;37835;53.256;6.456;2022-12-22T03:04:18;113.85;;;42.85;;
51764;SDS011;37835;53.256;6.456;2022-12-22T03:07:03;115.88;;;42.88;;
51764;SDS011;37835;53.256;6.456;2022-12-22T03:09:48;113.32;;;42.92;;
51764;SDS011;37835;53.256;6.456;2022-12-22T03:12:32;114.30;;;42.05;;
51764;SDS011;37835;53.256;6.456;2022-12-22T03:15:17;121.00;;;42.55;;
51764;SDS011;37835;53.256;6.456;2022-12-22T03:18:06;123.85;;;43.72;;
51764;SDS011;37835;53.256;6.456;2022-12-22T03:20:52;114.32;;;41.85;;
51764;SDS011;37835;53.256;6.456;2022-12-22T03:23:37;119.65;;;43.53;;
51764;SDS011;37835;53.256;6.456;2022-12-22T03:26:21;119.53;;;43.00;;
51764;SDS011;37835;53.256;6.456;2022-12-22T03:28:47;108.72;;;41.05;;
51764;SDS011;37835;53.256;6.456;2022-12-22T03:31:12;116.28;;;41.95;;
51764;SDS011;37835;53.256;6.456;2022-12-22T03:33:38;112.93;;;41.83;;
51764;SDS011;37835;53.256;6.456;2022-12-22T03:36:04;125.70;;;43.95;;
51764;SDS011;37835;53.256;6.456;2022-12-22T03:38:31;106.93;;;39.95;;
51764;SDS011;37835;53.256;6.456;2022-12-22T03:40:57;111.22;;;40.63;;
51764;SDS011;37835;53.256;6.456;2022-12-22T03:43:22;107.53;;;39.95;;
51764;SDS011;37835;53.256;6.456;2022-12-22T03:46:09;109.25;;;39.88;;
51764;SDS011;37835;53.256;6.456;2022-12-22T03:48:58;101.32;;;38.85;;
51764;SDS011;37835;53.256;6.456;2022-12-22T03:51:44;105.18;;;38.60;;
51764;SDS011;37835;53.256;6.456;2022-12-22T03:54:15;99.55;;;38.47;;
51764;SDS011;37835;53.256;6.456;2022-12-22T03:56:42;98.53;;;36.83;;
51764;SDS011;37835;53.256;6.456;2022-12-22T03:59:09;105.95;;;38.40;;
51764;SDS011;37835;53.256;6.456;2022-12-22T04:01:41;99.40;;;38.05;;
51764;SDS011;37835;53.256;6.456;2022-12-22T04:04:09;100.72;;;36.90;;
51764;SDS011;37835;53.256;6.456;2022-12-22T04:06:35;94.78;;;35.47;;
51764;SDS011;37835;53.256;6.456;2022-12-22T04:09:01;94.72;;;37.08;;
51764;SDS011;37835;53.256;6.456;2022-12-22T04:11:27;99.53;;;36.70;;
51764;SDS011;37835;53.256;6.456;2022-12-22T04:14:11;90.82;;;34.58;;
51764;SDS011;37835;53.256;6.456;2022-12-22T04:16:36;88.82;;;35.65;;
51764;SDS011;37835;53.256;6.456;2022-12-22T04:19:02;99.85;;;37.50;;
51764;SDS011;37835;53.256;6.456;2022-12-22T04:21:28;94.30;;;35.65;;
51764;SDS011;37835;53.256;6.456;2022-12-22T04:23:53;92.40;;;35.53;;
51764;SDS011;37835;53.256;6.456;2022-12-22T04:26:20;99.13;;;35.83;;
51764;SDS011;37835;53.256;6.456;2022-12-22T04:28:47;93.70;;;33.45;;
51764;SDS011;37835;53.256;6.456;2022-12-22T04:31:13;94.22;;;34.65;;
51764;SDS011;37835;53.256;6.456;2022-12-22T04:33:39;95.57;;;33.53;;
51764;SDS011;37835;53.256;6.456;2022-12-22T04:36:05;89.15;;;34.63;;
51764;SDS011;37835;53.256;6.456;2022-12-22T04:38:31;95.60;;;34.38;;
51764;SDS011;37835;53.256;6.456;2022-12-22T04:40:56;83.18;;;33.03;;
51764;SDS011;37835;53.256;6.456;2022-12-22T04:43:22;91.20;;;35.63;;
51764;SDS011;37835;53.256;6.456;2022-12-22T04:45:50;102.97;;;36.08;;
51764;SDS011;37835;53.256;6.456;2022-12-22T04:48:17;87.80;;;34.38;;
51764;SDS011;37835;53.256;6.456;2022-12-22T04:50:43;86.38;;;33.72;;
51764;SDS011;37835;53.256;6.456;2022-12-22T04:53:08;84.50;;;32.97;;
51764;SDS011;37835;53.256;6.456;2022-12-22T04:55:34;84.93;;;33.92;;
51764;SDS011;37835;53.256;6.456;2022-12-22T04:58:00;90.22;;;34.47;;
51764;SDS011;37835;53.256;6.456;2022-12-22T05:00:25;88.22;;;33.42;;
51764;SDS011;37835;53.256;6.456;2022-12-22T05:02:51;95.30;;;35.65;;
51764;SDS011;37835;53.256;6.456;2022-12-22T05:05:17;98.53;;;35.75;;
51764;SDS011;37835;53.256;6.456;2022-12-22T05:07:42;91.57;;;35.45;;
51764;SDS011;37835;53.256;6.456;2022-12-22T05:10:08;91.22;;;35.33;;
51764;SDS011;37835;53.256;6.456;2022-12-22T05:12:35;92.15;;;35.78;;
51764;SDS011;37835;53.256;6.456;2022-12-22T05:15:19;95.40;;;36.03;;
51764;SDS011;37835;53.256;6.456;2022-12-22T05:17:45;94.97;;;37.17;;
51764;SDS011;37835;53.256;6.456;2022-12-22T05:20:11;87.78;;;34.92;;
51764;SDS011;37835;53.256;6.456;2022-12-22T05:22:36;89.75;;;35.33;;
51764;SDS011;37835;53.256;6.456;2022-12-22T05:25:02;95.03;;;35.75;;
51764;SDS011;37835;53.256;6.456;2022-12-22T05:27:28;91.50;;;34.10;;
51764;SDS011;37835;53.256;6.456;2022-12-22T05:29:54;93.38;;;35.40;;
51764;SDS011;37835;53.256;6.456;2022-12-22T05:32:19;88.00;;;34.28;;
51764;SDS011;37835;53.256;6.456;2022-12-22T05:34:45;91.13;;;35.35;;
51764;SDS011;37835;53.256;6.456;2022-12-22T05:37:10;94.57;;;34.95;;
51764;SDS011;37835;53.256;6.456;2022-12-22T05:39:36;93.63;;;34.22;;
51764;SDS011;37835;53.256;6.456;2022-12-22T05:42:02;93.07;;;33.17;;
51764;SDS011;37835;53.256;6.456;2022-12-22T05:44:27;102.78;;;36.38;;
51764;SDS011;37835;53.256;6.456;2022-12-22T05:46:53;98.82;;;35.80;;
51764;SDS011;37835;53.256;6.456;2022-12-22T05:49:19;102.00;;;34.42;;
51764;SDS011;37835;53.256;6.456;2022-12-22T05:51:44;96.63;;;33.97;;
51764;SDS011;37835;53.256;6.456;2022-12-22T05:54:10;100.85;;;34.67;;
51764;SDS011;37835;53.256;6.456;2022-12-22T05:56:36;100.45;;;34.55;;
51764;SDS011;37835;53.256;6.456;2022-12-22T05:59:01;96.30;;;32.55;;
51764;SDS011;37835;53.256;6.456;2022-12-22T06:01:27;98.78;;;31.88;;
51764;SDS011;37835;53.256;6.456;2022-12-22T06:03:53;93.22;;;31.17;;
51764;SDS011;37835;53.256;6.456;2022-12-22T06:06:19;91.80;;;30.95;;
51764;SDS011;37835;53.256;6.456;2022-12-22T06:08:45;88.60;;;30.02;;
51764;SDS011;37835;53.256;6.456;2022-12-22T06:11:10;85.00;;;29.27;;
51764;SDS011;37835;53.256;6.456;2022-12-22T06:13:36;81.10;;;28.35;;
51764;SDS011;37835;53.256;6.456;2022-12-22T06:16:02;72.40;;;27.33;;
51764;SDS011;37835;53.256;6.456;2022-12-22T06:18:27;79.88;;;28.45;;
51764;SDS011;37835;53.256;6.456;2022-12-22T06:20:53;76.30;;;27.02;;
51764;SDS011;37835;53.256;6.456;2022-12-22T06:23:20;77.35;;;27.58;;
51764;SDS011;37835;53.256;6.456;2022-12-22T06:25:53;75.20;;;26.08;;
51764;SDS011;37835;53.256;6.456;2022-12-22T06:28:23;72.38;;;25.25;;
51764;SDS011;37835;53.256;6.456;2022-12-22T06:30:49;74.30;;;25.95;;
51764;SDS011;37835;53.256;6.456;2022-12-22T06:33:14;74.32;;;26.02;;
51764;SDS011;37835;53.256;6.456;2022-12-22T06:35:40;63.10;;;23.40;;
51764;SDS011;37835;53.256;6.456;2022-12-22T06:38:06;62.28;;;22.63;;
51764;SDS011;37835;53.256;6.456;2022-12-22T06:40:31;66.78;;;24.50;;
51764;SDS011;37835;53.256;6.456;2022-12-22T06:42:57;72.45;;;26.98;;
51764;SDS011;37835;53.256;6.456;2022-12-22T06:45:35;83.43;;;28.25;;
51764;SDS011;37835;53.256;6.456;2022-12-22T06:48:02;172.82;;;29.58;;
51764;SDS011;37835;53.256;6.456;2022-12-22T06:50:27;233.10;;;33.03;;
51764;SDS011;37835;53.256;6.456;2022-12-22T06:52:53;126.57;;;29.98;;
51764;SDS011;37835;53.256;6.456;2022-12-22T06:55:19;114.35;;;28.88;;
51764;SDS011;37835;53.256;6.456;2022-12-22T06:57:44;102.68;;;28.30;;
51764;SDS011;37835;53.256;6.456;2022-12-22T07:00:10;142.60;;;29.17;;
51764;SDS011;37835;53.256;6.456;2022-12-22T07:02:36;103.28;;;29.42;;
51764;SDS011;37835;53.256;6.456;2022-12-22T07:05:01;90.32;;;26.58;;
51764;SDS011;37835;53.256;6.456;2022-12-22T07:07:27;94.95;;;27.05;;
51764;SDS011;37835;53.256;6.456;2022-12-22T07:09:53;93.50;;;26.67;;
51764;SDS011;37835;53.256;6.456;2022-12-22T07:12:19;94.85;;;27.27;;
51764;SDS011;37835;53.256;6.456;2022-12-22T07:14:45;97.85;;;27.55;;
51764;SDS011;37835;53.256;6.456;2022-12-22T07:17:11;100.07;;;27.77;;
51764;SDS011;37835;53.256;6.456;2022-12-22T07:19:36;84.38;;;25.40;;
51764;SDS011;37835;53.256;6.456;2022-12-22T07:22:02;81.20;;;23.02;;
51764;SDS011;37835;53.256;6.456;2022-12-22T07:24:27;76.78;;;24.23;;
51764;SDS011;37835;53.256;6.456;2022-12-22T07:26:53;87.60;;;24.75;;
51764;SDS011;37835;53.256;6.456;2022-12-22T07:29:19;79.72;;;24.02;;
51764;SDS011;37835;53.256;6.456;2022-12-22T07:31:45;77.20;;;21.67;;
51764;SDS011;37835;53.256;6.456;2022-12-22T07:34:10;79.13;;;22.67;;
51764;SDS011;37835;53.256;6.456;2022-12-22T07:36:36;75.75;;;22.08;;
51764;SDS011;37835;53.256;6.456;2022-12-22T07:39:02;75.72;;;21.80;;
51764;SDS011;37835;53.256;6.456;2022-12-22T07:41:27;75.28;;;22.52;;
51764;SDS011;37835;53.256;6.456;2022-12-22T07:44:12;79.38;;;22.50;;
51764;SDS011;37835;53.256;6.456;2022-12-22T07:46:38;85.93;;;22.25;;
51764;SDS011;37835;53.256;6.456;2022-12-22T07:49:04;69.45;;;20.83;;
51764;SDS011;37835;53.256;6.456;2022-12-22T07:51:49;64.07;;;19.55;;
51764;SDS011;37835;53.256;6.456;2022-12-22T07:54:16;73.32;;;19.30;;
51764;SDS011;37835;53.256;6.456;2022-12-22T07:56:43;68.68;;;20.25;;
51764;SDS011;37835;53.256;6.456;2022-12-22T07:59:10;82.63;;;20.23;;
51764;SDS011;37835;53.256;6.456;2022-12-22T08:01:37;61.83;;;19.10;;
51764;SDS011;37835;53.256;6.456;2022-12-22T08:04:03;68.57;;;19.40;;
51764;SDS011;37835;53.256;6.456;2022-12-22T08:06:31;77.97;;;20.80;;
51764;SDS011;37835;53.256;6.456;2022-12-22T08:08:56;76.15;;;20.13;;
51764;SDS011;37835;53.256;6.456;2022-12-22T08:11:22;70.40;;;20.23;;
51764;SDS011;37835;53.256;6.456;2022-12-22T08:13:48;70.30;;;18.63;;
51764;SDS011;37835;53.256;6.456;2022-12-22T08:16:13;114.00;;;17.85;;
51764;SDS011;37835;53.256;6.456;2022-12-22T08:18:39;87.28;;;20.05;;
51764;SDS011;37835;53.256;6.456;2022-12-22T08:21:06;89.78;;;17.10;;
51764;SDS011;37835;53.256;6.456;2022-12-22T08:23:33;75.47;;;16.52;;
51764;SDS011;37835;53.256;6.456;2022-12-22T08:26:01;82.10;;;16.35;;
51764;SDS011;37835;53.256;6.456;2022-12-22T08:28:43;132.98;;;17.27;;
51764;SDS011;37835;53.256;6.456;2022-12-22T08:31:28;121.60;;;17.60;;
51764;SDS011;37835;53.256;6.456;2022-12-22T08:33:56;123.85;;;18.30;;
51764;SDS011;37835;53.256;6.456;2022-12-22T08:36:23;125.13;;;19.83;;
51764;SDS011;37835;53.256;6.456;2022-12-22T08:38:50;146.63;;;19.20;;
51764;SDS011;37835;53.256;6.456;2022-12-22T08:41:16;108.40;;;17.98;;
51764;SDS011;37835;53.256;6.456;2022-12-22T08:44:02;72.57;;;17.45;;
51764;SDS011;37835;53.256;6.456;2022-12-22T08:46:28;106.68;;;17.73;;
51764;SDS011;37835;53.256;6.456;2022-12-22T08:48:53;121.20;;;18.48;;
51764;SDS011;37835;53.256;6.456;2022-12-22T08:51:19;84.70;;;16.70;;
51764;SDS011;37835;53.256;6.456;2022-12-22T08:53:44;88.28;;;17.08;;
51764;SDS011;37835;53.256;6.456;2022-12-22T08:56:10;86.25;;;16.23;;
51764;SDS011;37835;53.256;6.456;2022-12-22T08:58:35;81.38;;;16.27;;
51764;SDS011;37835;53.256;6.456;2022-12-22T09:01:01;90.60;;;15.95;;
51764;SDS011;37835;53.256;6.456;2022-12-22T09:03:26;79.47;;;16.55;;
51764;SDS011;37835;53.256;6.456;2022-12-22T09:05:58;67.25;;;15.63;;
51764;SDS011;37835;53.256;6.456;2022-12-22T09:08:25;51.20;;;14.88;;
51764;SDS011;37835;53.256;6.456;2022-12-22T09:10:50;77.28;;;15.90;;
51764;SDS011;37835;53.256;6.456;2022-12-22T09:13:16;57.22;;;15.50;;
51764;SDS011;37835;53.256;6.456;2022-12-22T09:15:41;39.92;;;13.82;;
51764;SDS011;37835;53.256;6.456;2022-12-22T09:18:07;43.50;;;13.48;;
51764;SDS011;37835;53.256;6.456;2022-12-22T09:20:32;44.20;;;12.80;;
51764;SDS011;37835;53.256;6.456;2022-12-22T09:22:58;44.00;;;12.77;;
51764;SDS011;37835;53.256;6.456;2022-12-22T09:25:24;45.88;;;13.48;;
51764;SDS011;37835;53.256;6.456;2022-12-22T09:27:50;45.08;;;13.63;;
51764;SDS011;37835;53.256;6.456;2022-12-22T09:30:15;41.40;;;14.20;;
51764;SDS011;37835;53.256;6.456;2022-12-22T09:32:41;49.15;;;16.48;;
51764;SDS011;37835;53.256;6.456;2022-12-22T09:35:06;50.58;;;16.25;;
51764;SDS011;37835;53.256;6.456;2022-12-22T09:37:32;39.65;;;15.32;;
51764;SDS011;37835;53.256;6.456;2022-12-22T09:39:58;44.28;;;15.77;;
51764;SDS011;37835;53.256;6.456;2022-12-22T09:42:23;43.85;;;15.02;;
51764;SDS011;37835;53.256;6.456;2022-12-22T09:44:49;43.42;;;17.05;;
51764;SDS011;37835;53.256;6.456;2022-12-22T09:47:21;51.22;;;16.30;;
51764;SDS011;37835;53.256;6.456;2022-12-22T09:49:48;36.53;;;14.35;;
51764;SDS011;37835;53.256;6.456;2022-12-22T09:52:21;59.55;;;30.63;;
51764;SDS011;37835;53.256;6.456;2022-12-22T09:54:50;47.78;;;19.13;;
51764;SDS011;37835;53.256;6.456;2022-12-22T09:57:16;46.20;;;19.00;;
51764;SDS011;37835;53.256;6.456;2022-12-22T09:59:42;46.65;;;17.58;;
51764;SDS011;37835;53.256;6.456;2022-12-22T10:02:24;49.28;;;25.23;;
51764;SDS011;37835;53.256;6.456;2022-12-22T10:04:59;50.08;;;19.92;;
51764;SDS011;37835;53.256;6.456;2022-12-22T10:07:40;56.03;;;27.38;;
51764;SDS011;37835;53.256;6.456;2022-12-22T10:12:40;34.75;;;16.83;;
51764;SDS011;37835;53.256;6.456;2022-12-22T10:15:09;37.55;;;15.48;;
51764;SDS011;37835;53.256;6.456;2022-12-22T10:17:35;33.90;;;14.50;;
51764;SDS011;37835;53.256;6.456;2022-12-22T10:20:07;37.88;;;15.65;;
51764;SDS011;37835;53.256;6.456;2022-12-22T10:22:49;34.53;;;14.48;;
51764;SDS011;37835;53.256;6.456;2022-12-22T10:25:33;32.50;;;14.60;;
51764;SDS011;37835;53.256;6.456;2022-12-22T10:28:23;33.70;;;14.45;;
51764;SDS011;37835;53.256;6.456;2022-12-22T10:30:49;33.05;;;14.02;;
51764;SDS011;37835;53.256;6.456;2022-12-22T10:33:33;32.70;;;13.98;;
51764;SDS011;37835;53.256;6.456;2022-12-22T10:35:58;31.83;;;13.50;;
51764;SDS011;37835;53.256;6.456;2022-12-22T10:38:28;30.88;;;14.05;;
51764;SDS011;37835;53.256;6.456;2022-12-22T10:43:49;29.92;;;11.88;;
51764;SDS011;37835;53.256;6.456;2022-12-22T10:46:17;23.70;;;11.27;;
51764;SDS011;37835;53.256;6.456;2022-12-22T10:48:44;24.08;;;10.65;;
51764;SDS011;37835;53.256;6.456;2022-12-22T10:51:10;24.58;;;9.20;;
51764;SDS011;37835;53.256;6.456;2022-12-22T10:53:43;25.63;;;8.38;;
51764;SDS011;37835;53.256;6.456;2022-12-22T10:56:23;19.17;;;7.50;;
51764;SDS011;37835;53.256;6.456;2022-12-22T10:59:45;19.25;;;7.22;;
51764;SDS011;37835;53.256;6.456;2022-12-22T11:01:44;21.98;;;6.55;;
51764;SDS011;37835;53.256;6.456;2022-12-22T11:04:43;14.45;;;6.45;;
51764;SDS011;37835;53.256;6.456;2022-12-22T11:07:04;18.02;;;6.30;;
51764;SDS011;37835;53.256;6.456;2022-12-22T11:09:33;18.08;;;6.38;;
51764;SDS011;37835;53.256;6.456;2022-12-22T11:12:01;13.35;;;5.95;;
51764;SDS011;37835;53.256;6.456;2022-12-22T11:22:44;22.50;;;4.38;;
51764;SDS011;37835;53.256;6.456;2022-12-22T11:25:31;13.70;;;4.65;;
51764;SDS011;37835;53.256;6.456;2022-12-22T11:28:37;15.55;;;4.53;;
51764;SDS011;37835;53.256;6.456;2022-12-22T11:31:19;13.93;;;4.43;;
51764;SDS011;37835;53.256;6.456;2022-12-22T11:36:57;17.05;;;4.18;;
51764;SDS011;37835;53.256;6.456;2022-12-22T11:39:45;13.75;;;3.42;;
51764;SDS011;37835;53.256;6.456;2022-12-22T11:50:53;15.70;;;4.38;;
51764;SDS011;37835;53.256;6.456;2022-12-22T11:53:25;14.70;;;5.13;;
51764;SDS011;37835;53.256;6.456;2022-12-22T11:56:26;17.98;;;5.47;;
51764;SDS011;37835;53.256;6.456;2022-12-22T11:59:06;15.38;;;4.93;;
51764;SDS011;37835;53.256;6.456;2022-12-22T12:07:43;16.73;;;5.68;;
51764;SDS011;37835;53.256;6.456;2022-12-22T12:10:27;17.48;;;6.05;;
51764;SDS011;37835;53.256;6.456;2022-12-22T12:15:57;19.13;;;5.75;;
51764;SDS011;37835;53.256;6.456;2022-12-22T12:21:46;16.27;;;6.25;;
51764;SDS011;37835;53.256;6.456;2022-12-22T12:28:06;15.85;;;5.30;;
51764;SDS011;37835;53.256;6.456;2022-12-22T12:32:38;20.08;;;5.30;;
51764;SDS011;37835;53.256;6.456;2022-12-22T12:35:20;13.93;;;4.80;;
51764;SDS011;37835;53.256;6.456;2022-12-22T12:37:58;13.88;;;4.22;;
51764;SDS011;37835;53.256;6.456;2022-12-22T12:40:39;16.33;;;4.80;;
51764;SDS011;37835;53.256;6.456;2022-12-22T12:43:14;15.50;;;3.88;;
51764;SDS011;37835;53.256;6.456;2022-12-22T12:45:41;12.05;;;3.85;;
51764;SDS011;37835;53.256;6.456;2022-12-22T12:48:34;9.27;;;3.53;;
51764;SDS011;37835;53.256;6.456;2022-12-22T12:51:00;17.55;;;4.00;;
51764;SDS011;37835;53.256;6.456;2022-12-22T12:53:26;15.20;;;4.40;;
51764;SDS011;37835;53.256;6.456;2022-12-22T12:55:54;15.63;;;4.70;;
51764;SDS011;37835;53.256;6.456;2022-12-22T13:01:00;20.15;;;4.82;;
51764;SDS011;37835;53.256;6.456;2022-12-22T13:05:53;16.08;;;4.68;;
51764;SDS011;37835;53.256;6.456;2022-12-22T13:23:33;16.35;;;4.55;;
51764;SDS011;37835;53.256;6.456;2022-12-22T13:26:04;18.80;;;3.97;;
51764;SDS011;37835;53.256;6.456;2022-12-22T13:28:30;20.45;;;4.90;;
51764;SDS011;37835;53.256;6.456;2022-12-22T13:31:00;17.23;;;3.65;;
51764;SDS011;37835;53.256;6.456;2022-12-22T13:33:48;10.43;;;3.67;;
51764;SDS011;37835;53.256;6.456;2022-12-22T13:36:25;12.18;;;4.28;;
51764;SDS011;37835;53.256;6.456;2022-12-22T13:38:59;20.83;;;4.32;;
51764;SDS011;37835;53.256;6.456;2022-12-22T13:41:26;19.77;;;4.75;;
51764;SDS011;37835;53.256;6.456;2022-12-22T13:43:54;21.15;;;4.43;;
51764;SDS011;37835;53.256;6.456;2022-12-22T13:46:25;16.73;;;4.22;;
51764;SDS011;37835;53.256;6.456;2022-12-22T13:48:51;18.88;;;4.03;;
51764;SDS011;37835;53.256;6.456;2022-12-22T13:51:26;14.73;;;4.47;;
51764;SDS011;37835;53.256;6.456;2022-12-22T13:54:00;8.23;;;4.10;;
51764;SDS011;37835;53.256;6.456;2022-12-22T13:56:37;18.50;;;4.70;;
51764;SDS011;37835;53.256;6.456;2022-12-22T13:59:04;18.77;;;4.40;;
51764;SDS011;37835;53.256;6.456;2022-12-22T14:01:49;19.55;;;4.38;;
51764;SDS011;37835;53.256;6.456;2022-12-22T14:04:20;12.25;;;3.83;;
51764;SDS011;37835;53.256;6.456;2022-12-22T14:06:46;14.77;;;4.32;;
51764;SDS011;37835;53.256;6.456;2022-12-22T14:09:13;17.90;;;4.88;;
51764;SDS011;37835;53.256;6.456;2022-12-22T14:11:51;16.95;;;4.00;;
51764;SDS011;37835;53.256;6.456;2022-12-22T14:14:28;21.08;;;4.80;;
51764;SDS011;37835;53.256;6.456;2022-12-22T14:16:58;21.55;;;5.03;;
51764;SDS011;37835;53.256;6.456;2022-12-22T14:19:25;18.75;;;5.18;;
51764;SDS011;37835;53.256;6.456;2022-12-22T14:22:15;17.73;;;5.13;;
51764;SDS011;37835;53.256;6.456;2022-12-22T14:24:49;14.32;;;4.93;;
51764;SDS011;37835;53.256;6.456;2022-12-22T14:29:59;14.05;;;4.43;;
51764;SDS011;37835;53.256;6.456;2022-12-22T14:32:38;16.65;;;4.03;;
51764;SDS011;37835;53.256;6.456;2022-12-22T14:35:27;15.82;;;3.80;;
51764;SDS011;37835;53.256;6.456;2022-12-22T14:40:46;11.25;;;3.75;;
51764;SDS011;37835;53.256;6.456;2022-12-22T14:43:19;13.68;;;3.83;;
51764;SDS011;37835;53.256;6.456;2022-12-22T14:45:46;15.05;;;3.97;;
51764;SDS011;37835;53.256;6.456;2022-12-22T14:48:23;16.23;;;4.03;;
51764;SDS011;37835;53.256;6.456;2022-12-22T14:50:55;15.20;;;3.75;;
51764;SDS011;37835;53.256;6.456;2022-12-22T14:53:25;14.30;;;3.47;;
51764;SDS011;37835;53.256;6.456;2022-12-22T14:55:56;14.43;;;3.38;;
51764;SDS011;37835;53.256;6.456;2022-12-22T14:58:30;13.15;;;3.17;;
51764;SDS011;37835;53.256;6.456;2022-12-22T15:01:18;16.40;;;3.63;;
51764;SDS011;37835;53.256;6.456;2022-12-22T15:03:44;16.70;;;3.47;;
51764;SDS011;37835;53.256;6.456;2022-12-22T15:06:35;12.38;;;3.35;;
51764;SDS011;37835;53.256;6.456;2022-12-22T15:11:28;11.00;;;3.67;;
51764;SDS011;37835;53.256;6.456;2022-12-22T15:13:55;13.25;;;3.78;;
51764;SDS011;37835;53.256;6.456;2022-12-22T15:16:21;12.70;;;3.78;;
51764;SDS011;37835;53.256;6.456;2022-12-22T15:18:47;15.05;;;3.70;;
51764;SDS011;37835;53.256;6.456;2022-12-22T15:21:15;13.40;;;3.30;;
51764;SDS011;37835;53.256;6.456;2022-12-22T15:23:42;17.38;;;3.72;;
51764;SDS011;37835;53.256;6.456;2022-12-22T15:26:08;13.10;;;3.83;;
51764;SDS011;37835;53.256;6.456;2022-12-22T15:28:34;15.00;;;4.60;;
51764;SDS011;37835;53.256;6.456;2022-12-22T15:31:00;13.45;;;4.43;;
51764;SDS011;37835;53.256;6.456;2022-12-22T15:33:26;11.07;;;3.83;;
51764;SDS011;37835;53.256;6.456;2022-12-22T15:35:53;13.93;;;4.57;;
51764;SDS011;37835;53.256;6.456;2022-12-22T15:38:23;13.75;;;6.47;;
51764;SDS011;37835;53.256;6.456;2022-12-22T15:40:49;14.98;;;4.85;;
51764;SDS011;37835;53.256;6.456;2022-12-22T15:43:15;12.82;;;5.38;;
51764;SDS011;37835;53.256;6.456;2022-12-22T15:45:41;10.13;;;3.42;;
51764;SDS011;37835;53.256;6.456;2022-12-22T15:48:12;13.27;;;3.70;;
51764;SDS011;37835;53.256;6.456;2022-12-22T15:50:42;11.20;;;4.13;;
51764;SDS011;37835;53.256;6.456;2022-12-22T15:53:13;12.05;;;4.18;;
51764;SDS011;37835;53.256;6.456;2022-12-22T15:55:42;17.05;;;3.75;;
51764;SDS011;37835;53.256;6.456;2022-12-22T15:58:10;11.13;;;4.30;;
51764;SDS011;37835;53.256;6.456;2022-12-22T16:00:38;12.55;;;5.22;;
51764;SDS011;37835;53.256;6.456;2022-12-22T16:03:04;9.70;;;4.80;;
51764;SDS011;37835;53.256;6.456;2022-12-22T16:05:30;15.68;;;5.28;;
51764;SDS011;37835;53.256;6.456;2022-12-22T16:07:57;17.02;;;5.88;;
51764;SDS011;37835;53.256;6.456;2022-12-22T16:10:26;16.85;;;6.40;;
51764;SDS011;37835;53.256;6.456;2022-12-22T16:12:54;12.32;;;6.82;;
51764;SDS011;37835;53.256;6.456;2022-12-22T16:15:27;18.40;;;6.72;;
51764;SDS011;37835;53.256;6.456;2022-12-22T16:17:55;11.63;;;6.47;;
51764;SDS011;37835;53.256;6.456;2022-12-22T16:20:21;15.25;;;7.20;;
51764;SDS011;37835;53.256;6.456;2022-12-22T16:22:47;18.33;;;7.15;;
51764;SDS011;37835;53.256;6.456;2022-12-22T16:25:17;16.17;;;6.90;;